| time (UTC) | temp C | wind direction | speed KPH | gust KPH | rain 1hr cm | rain 24hr cm | rain mn cm | humidity % | barometer mb |
| 20260509185504 | 16 | 340 | 0.0 | 1.6 | 0.00 | 0.23 | 0.18 | 82 | 961.7 |
| 20260509185004 | 16 | 144 | 1.6 | 1.6 | 0.00 | 0.23 | 0.18 | 77 | 961.7 |
| 20260509184504 | 16 | 333 | 0.0 | 3.2 | 0.00 | 0.23 | 0.18 | 76 | 961.6 |
| 20260509184003 | 16 | 10 | 0.0 | 3.2 | 0.00 | 0.23 | 0.18 | 77 | 961.6 |
| 20260509183003 | 16 | 31 | 0.0 | 1.6 | 0.00 | 0.23 | 0.18 | 82 | 961.3 |
| 20260509182504 | 15 | 308 | 1.6 | 1.6 | 0.00 | 0.23 | 0.18 | 82 | 961.3 |
| 20260509182004 | 15 | 335 | 0.0 | 1.6 | 0.00 | 0.23 | 0.18 | 82 | 961.5 |
| 20260509181503 | 15 | 272 | 0.0 | 1.6 | 0.00 | 0.23 | 0.18 | 81 | 961.5 |
| 20260509181004 | 15 | 52 | 1.6 | 1.6 | 0.00 | 0.23 | 0.18 | 82 | 961.6 |
| 20260509180503 | 14 | 17 | 0.0 | 1.6 | 0.00 | 0.23 | 0.18 | 84 | 961.6 |
| 20260509180004 | 14 | 48 | 1.6 | 3.2 | 0.00 | 0.23 | 0.18 | 85 | 961.6 |
| 20260509175004 | 14 | 349 | 1.6 | 1.6 | 0.00 | 0.23 | 0.18 | 86 | 961.6 |
| 20260509174504 | 14 | 313 | 0.0 | 1.6 | 0.00 | 0.23 | 0.18 | 87 | 961.7 |
| 20260509173503 | 13 | 343 | 0.0 | 3.2 | 0.00 | 0.23 | 0.18 | 87 | 961.8 |
| 20260509173004 | 13 | 44 | 0.0 | 3.2 | 0.00 | 0.23 | 0.18 | 86 | 961.8 |
| 20260509172503 | 13 | 26 | 0.0 | 1.6 | 0.00 | 0.23 | 0.18 | 89 | 961.8 |
| 20260509172004 | 13 | 17 | 0.0 | 3.2 | 0.00 | 0.23 | 0.18 | 90 | 961.8 |
| 20260509171504 | 13 | 25 | 0.0 | 1.6 | 0.00 | 0.23 | 0.18 | 91 | 961.8 |
| 20260509171003 | 13 | 292 | 0.0 | 1.6 | 0.00 | 0.23 | 0.18 | 89 | 962.1 |
| 20260509170004 | 13 | 281 | 0.0 | 1.6 | 0.00 | 0.23 | 0.18 | 91 | 962.1 |
| 20260509165504 | 12 | 298 | 0.0 | 1.6 | 0.00 | 0.23 | 0.18 | 92 | 962.3 |
| 20260509165004 | 13 | 352 | 0.0 | 1.6 | 0.00 | 0.23 | 0.18 | 90 | 962.3 |
| 20260509164504 | 13 | 5 | 1.6 | 1.6 | 0.00 | 0.23 | 0.18 | 88 | 962.4 |
| 20260509164004 | 13 | 294 | 0.0 | 3.2 | 0.00 | 0.23 | 0.18 | 87 | 962.3 |
| 20260509163504 | 13 | 278 | 0.0 | 1.6 | 0.00 | 0.23 | 0.18 | 88 | 962.1 |
| 20260509163004 | 13 | 353 | 0.0 | 3.2 | 0.00 | 0.23 | 0.18 | 88 | 962.0 |
| 20260509162504 | 13 | 298 | 0.0 | 3.2 | 0.00 | 0.23 | 0.18 | 93 | 962.3 |
| 20260509161504 | 12 | 273 | 0.0 | 1.6 | 0.00 | 0.23 | 0.18 | 95 | 962.2 |
| 20260509161004 | 12 | 277 | 0.0 | 1.6 | 0.00 | 0.23 | 0.18 | 97 | 962.5 |
| 20260509160504 | 11 | 45 | 1.6 | 3.2 | 0.00 | 0.23 | 0.18 | 97 | 962.5 |
| 20260509160004 | 11 | 346 | 0.0 | 3.2 | 0.00 | 0.23 | 0.18 | 96 | 962.5 |
| 20260509155504 | 11 | 9 | 0.0 | 0.0 | 0.00 | 0.23 | 0.18 | 95 | 962.5 |
| 20260509155004 | 11 | 12 | 1.6 | 3.2 | 0.03 | 0.23 | 0.18 | 94 | 962.6 |
| 20260509154504 | 11 | 23 | 1.6 | 1.6 | 0.03 | 0.23 | 0.18 | 94 | 962.5 |
| 20260509154004 | 11 | 297 | 1.6 | 3.2 | 0.03 | 0.23 | 0.18 | 94 | 962.6 |
| 20260509153504 | 11 | 303 | 0.0 | 1.6 | 0.03 | 0.23 | 0.18 | 96 | 962.6 |
| 20260509153004 | 11 | 359 | 0.0 | 3.2 | 0.03 | 0.23 | 0.18 | 97 | 962.7 |
| 20260509152504 | 11 | 32 | 1.6 | 1.6 | 0.00 | 0.23 | 0.18 | 98 | 962.7 |
| 20260509152003 | 11 | 288 | 1.6 | 3.2 | 0.05 | 0.23 | 0.20 | 96 | 962.7 |
| 20260509151504 | 11 | 314 | 0.0 | 1.6 | 0.05 | 0.23 | 0.20 | 96 | 962.6 |
| 20260509151004 | 11 | 288 | 1.6 | 1.6 | 0.05 | 0.23 | 0.20 | 96 | 962.5 |
| 20260509150504 | 11 | 355 | 1.6 | 3.2 | 0.05 | 0.23 | 0.20 | 96 | 962.6 |
| 20260509150004 | 11 | 295 | 0.0 | 3.2 | 0.08 | 0.23 | 0.20 | 95 | 962.5 |
| 20260509145504 | 11 | 14 | 0.0 | 3.2 | 0.08 | 0.23 | 0.20 | 96 | 962.5 |
| 20260509145004 | 11 | 318 | 1.6 | 1.6 | 0.05 | 0.23 | 0.20 | 96 | 962.5 |
| 20260509144504 | 11 | 333 | 0.0 | 3.2 | 0.05 | 0.23 | 0.20 | 97 | 962.5 |
| 20260509144003 | 11 | 358 | 1.6 | 3.2 | 0.08 | 0.23 | 0.20 | 97 | 962.5 |
| 20260509143504 | 11 | 319 | 1.6 | 3.2 | 0.08 | 0.23 | 0.20 | 97 | 962.5 |
| 20260509143003 | 11 | 354 | 0.0 | 1.6 | 0.08 | 0.23 | 0.20 | 97 | 962.6 |
| 20260509142504 | 11 | 23 | 0.0 | 1.6 | 0.08 | 0.23 | 0.18 | 97 | 962.7 |
| 20260509142004 | 11 | 9 | 1.6 | 3.2 | 0.05 | 0.18 | 0.15 | 98 | 962.7 |
| 20260509141504 | 11 | 247 | 1.6 | 3.2 | 0.05 | 0.18 | 0.15 | 97 | 962.7 |
| 20260509141003 | 11 | 298 | 0.0 | 0.0 | 0.08 | 0.18 | 0.15 | 97 | 962.7 |
| 20260509140004 | 11 | 176 | 1.6 | 1.6 | 0.10 | 0.15 | 0.13 | 96 | 962.8 |
| 20260509135504 | 11 | 246 | 0.0 | 0.0 | 0.10 | 0.15 | 0.13 | 96 | 962.8 |
| 20260509135004 | 11 | 246 | 0.0 | 0.0 | 0.10 | 0.15 | 0.15 | 96 | 962.8 |
| 20260509134504 | 11 | 246 | 0.0 | 0.0 | 0.10 | 0.15 | 0.13 | 96 | 962.9 |
| 20260509134004 | 11 | 246 | 0.0 | 1.6 | 0.13 | 0.13 | 0.13 | 96 | 963.0 |
| 20260509133004 | 11 | 305 | 0.0 | 0.0 | 0.10 | 0.13 | 0.10 | 95 | 962.9 |
| 20260509132004 | 11 | 305 | 0.0 | 0.0 | 0.10 | 0.10 | 0.10 | 94 | 962.9 |
| 20260509131504 | 11 | 304 | 1.6 | 1.6 | 0.10 | 0.10 | 0.10 | 93 | 962.9 |
| 20260509130504 | 11 | 305 | 0.0 | 1.6 | 0.05 | 0.05 | 0.05 | 91 | 962.9 |
| 20260509130004 | 11 | 311 | 0.0 | 1.6 | 0.05 | 0.05 | 0.05 | 89 | 962.8 |
| 20260509125503 | 11 | 47 | 0.0 | 0.0 | 0.05 | 0.05 | 0.05 | 88 | 962.7 |
| 20260509125003 | 12 | 42 | 0.0 | 1.6 | 0.05 | 0.05 | 0.05 | 86 | 962.9 |
| 20260509124504 | 12 | 49 | 1.6 | 1.6 | 0.03 | 0.03 | 0.03 | 81 | 962.8 |
| 20260509124004 | 12 | 36 | 0.0 | 1.6 | 0.00 | 0.00 | 0.00 | 81 | 962.8 |
| 20260509123504 | 12 | 23 | 1.6 | 3.2 | 0.00 | 0.00 | 0.00 | 79 | 962.9 |
| 20260509123004 | 12 | 257 | 0.0 | 3.2 | 0.00 | 0.00 | 0.00 | 78 | 962.9 |
| 20260509122504 | 12 | 307 | 3.2 | 4.8 | 0.00 | 0.00 | 0.00 | 78 | 962.8 |
| 20260509122004 | 12 | 260 | 1.6 | 4.8 | 0.00 | 0.00 | 0.00 | 78 | 962.8 |
| 20260509121503 | 12 | 305 | 0.0 | 1.6 | 0.00 | 0.00 | 0.00 | 80 | 962.8 |
| 20260509121003 | 12 | 264 | 0.0 | 1.6 | 0.00 | 0.00 | 0.00 | 78 | 962.8 |
| 20260509120504 | 12 | 298 | 1.6 | 3.2 | 0.00 | 0.00 | 0.00 | 78 | 962.7 |
| 20260509120004 | 12 | 263 | 3.2 | 4.8 | 0.00 | 0.00 | 0.00 | 78 | 962.7 |
| 20260509115505 | 12 | 351 | 1.6 | 3.2 | 0.00 | 0.00 | 0.00 | 79 | 962.7 |
| 20260509115004 | 12 | 279 | 1.6 | 1.6 | 0.00 | 0.00 | 0.00 | 79 | 962.6 |
| 20260509114503 | 12 | 270 | 1.6 | 3.2 | 0.00 | 0.00 | 0.00 | 78 | 962.6 |
| 20260509114004 | 12 | 38 | 3.2 | 4.8 | 0.00 | 0.00 | 0.00 | 78 | 962.6 |
| 20260509113503 | 12 | 39 | 1.6 | 4.8 | 0.00 | 0.00 | 0.00 | 77 | 962.6 |
| 20260509113004 | 12 | 289 | 1.6 | 9.7 | 0.00 | 0.00 | 0.00 | 77 | 962.6 |
| 20260509112504 | 12 | 240 | 1.6 | 4.8 | 0.00 | 0.00 | 0.00 | 77 | 962.6 |
| 20260509111504 | 12 | 1 | 3.2 | 8.0 | 0.00 | 0.00 | 0.00 | 77 | 962.5 |
| 20260509111004 | 12 | 245 | 3.2 | 8.0 | 0.00 | 0.00 | 0.00 | 77 | 962.4 |
| 20260509110503 | 12 | 272 | 3.2 | 11.3 | 0.00 | 0.00 | 0.00 | 76 | 962.4 |
| 20260509110004 | 12 | 267 | 4.8 | 11.3 | 0.00 | 0.00 | 0.00 | 76 | 962.3 |
| 20260509105504 | 12 | 304 | 6.4 | 11.3 | 0.00 | 0.00 | 0.00 | 76 | 962.2 |
| 20260509105004 | 12 | 301 | 4.8 | 9.7 | 0.00 | 0.00 | 0.00 | 76 | 962.1 |
| 20260509104504 | 12 | 307 | 6.4 | 9.7 | 0.00 | 0.00 | 0.00 | 77 | 962.2 |
| 20260509104004 | 12 | 297 | 4.8 | 9.7 | 0.00 | 0.00 | 0.00 | 76 | 962.2 |
| 20260509103504 | 12 | 312 | 4.8 | 11.3 | 0.00 | 0.00 | 0.00 | 77 | 962.2 |
| 20260509103004 | 12 | 300 | 3.2 | 9.7 | 0.00 | 0.00 | 0.00 | 75 | 962.2 |
| 20260509102504 | 12 | 352 | 4.8 | 8.0 | 0.00 | 0.00 | 0.00 | 76 | 962.3 |
| 20260509101504 | 12 | 335 | 3.2 | 4.8 | 0.00 | 0.00 | 0.00 | 74 | 962.3 |
| 20260509101004 | 12 | 273 | 4.8 | 8.0 | 0.00 | 0.00 | 0.00 | 74 | 962.2 |
| 20260509100504 | 12 | 325 | 3.2 | 8.0 | 0.00 | 0.00 | 0.00 | 74 | 962.3 |
| 20260509100005 | 12 | 313 | 3.2 | 9.7 | 0.00 | 0.00 | 0.00 | 71 | 962.2 |
| 20260509095504 | 12 | 264 | 8.0 | 12.9 | 0.00 | 0.00 | 0.00 | 72 | 962.2 |
| 20260509095004 | 12 | 309 | 4.8 | 4.8 | 0.00 | 0.00 | 0.00 | 70 | 962.2 |
| 20260509094003 | 12 | 268 | 3.2 | 9.7 | 0.00 | 0.00 | 0.00 | 69 | 962.1 |
| 20260509093004 | 12 | 262 | 1.6 | 3.2 | 0.00 | 0.00 | 0.00 | 69 | 962.1 |
| 20260509092503 | 12 | 315 | 1.6 | 3.2 | 0.00 | 0.00 | 0.00 | 68 | 962.2 |
| 20260509092004 | 11 | 295 | 1.6 | 3.2 | 0.00 | 0.00 | 0.00 | 68 | 962.1 |
| 20260509091504 | 11 | 279 | 1.6 | 3.2 | 0.00 | 0.00 | 0.00 | 70 | 962.0 |
| 20260509091004 | 11 | 308 | 1.6 | 3.2 | 0.00 | 0.00 | 0.00 | 75 | 962.2 |
| 20260509090004 | 11 | 19 | 1.6 | 1.6 | 0.00 | 0.00 | 0.00 | 77 | 962.3 |
| 20260509085503 | 11 | 54 | 1.6 | 3.2 | 0.00 | 0.00 | 0.00 | 77 | 962.3 |
| 20260509084504 | 10 | 299 | 0.0 | 1.6 | 0.00 | 0.00 | 0.00 | 77 | 962.3 |
| 20260509083504 | 10 | 49 | 1.6 | 1.6 | 0.00 | 0.00 | 0.00 | 78 | 962.3 |
| 20260509083004 | 10 | 49 | 1.6 | 1.6 | 0.00 | 0.00 | 0.00 | 78 | 962.3 |
| 20260509082004 | 10 | 323 | 0.0 | 1.6 | 0.00 | 0.00 | 0.00 | 76 | 962.2 |
| 20260509081504 | 10 | 284 | 0.0 | 0.0 | 0.00 | 0.00 | 0.00 | 76 | 962.2 |
| 20260509081004 | 10 | 266 | 0.0 | 1.6 | 0.00 | 0.00 | 0.00 | 76 | 962.2 |
| 20260509080504 | 10 | 221 | 0.0 | 1.6 | 0.00 | 0.00 | 0.00 | 76 | 962.2 |
| 20260509080004 | 10 | 26 | 0.0 | 1.6 | 0.00 | 0.00 | 0.00 | 78 | 962.2 |
| 20260509075504 | 10 | 60 | 0.0 | 1.6 | 0.00 | 0.00 | 0.00 | 78 | 962.2 |
| 20260509075004 | 10 | 242 | 0.0 | 1.6 | 0.00 | 0.00 | 0.00 | 77 | 962.3 |
| 20260509073504 | 10 | 279 | 0.0 | 1.6 | 0.00 | 0.00 | 0.00 | 77 | 962.3 |
| 20260509073004 | 10 | 49 | 0.0 | 1.6 | 0.00 | 0.00 | 0.00 | 77 | 962.3 |
| 20260509072503 | 10 | 311 | 0.0 | 1.6 | 0.00 | 0.00 | 0.00 | 78 | 962.2 |
| 20260509072004 | 10 | 342 | 1.6 | 1.6 | 0.00 | 0.00 | 0.00 | 79 | 962.3 |
| 20260509071504 | 10 | 214 | 0.0 | 1.6 | 0.00 | 0.00 | 0.00 | 78 | 962.3 |
| 20260509071004 | 10 | 284 | 0.0 | 3.2 | 0.00 | 0.00 | 0.00 | 79 | 962.4 |
| 20260509070504 | 10 | 270 | 1.6 | 3.2 | 0.00 | 0.00 | 0.00 | 79 | 962.3 |
| 20260509070004 | 10 | 267 | 0.0 | 1.6 | 0.00 | 0.00 | 0.00 | 78 | 962.2 |
| 20260509065004 | 10 | 295 | 0.0 | 1.6 | 0.00 | 0.00 | 0.00 | 78 | 962.4 |
| 20260509064504 | 10 | 267 | 0.0 | 1.6 | 0.00 | 0.00 | 0.00 | 78 | 962.5 |
| 20260509064004 | 11 | 269 | 1.6 | 3.2 | 0.00 | 0.00 | 0.00 | 78 | 962.4 |
| 20260509063504 | 11 | 288 | 1.6 | 1.6 | 0.00 | 0.00 | 0.00 | 78 | 962.4 |
| 20260509063004 | 11 | 282 | 1.6 | 3.2 | 0.00 | 0.00 | 0.00 | 77 | 962.4 |
| 20260509062503 | 11 | 37 | 1.6 | 11.3 | 0.00 | 0.00 | 0.00 | 76 | 962.4 |
| 20260509062004 | 11 | 299 | 1.6 | 8.0 | 0.00 | 0.00 | 0.00 | 76 | 962.3 |
| 20260509061504 | 11 | 32 | 1.6 | 8.0 | 0.00 | 0.00 | 0.00 | 75 | 962.5 |
| 20260509060504 | 11 | 300 | 1.6 | 1.6 | 0.00 | 0.00 | 0.00 | 75 | 962.6 |
| 20260509055504 | 11 | 289 | 0.0 | 1.6 | 0.00 | 0.00 | 0.00 | 75 | 962.7 |
| 20260509055003 | 11 | 281 | 0.0 | 1.6 | 0.00 | 0.00 | 0.00 | 75 | 962.6 |
| 20260509054504 | 11 | 335 | 0.0 | 1.6 | 0.00 | 0.00 | 0.00 | 75 | 962.7 |
| 20260509054004 | 11 | 295 | 1.6 | 3.2 | 0.00 | 0.00 | 0.00 | 73 | 962.8 |
| 20260509053504 | 11 | 301 | 1.6 | 3.2 | 0.00 | 0.00 | 0.00 | 72 | 962.9 |
| 20260509053004 | 11 | 231 | 1.6 | 4.8 | 0.00 | 0.00 | 0.00 | 72 | 962.9 |
| 20260509052504 | 12 | 263 | 1.6 | 3.2 | 0.00 | 0.00 | 0.00 | 71 | 962.9 |
| 20260509052004 | 12 | 2 | 3.2 | 9.7 | 0.00 | 0.00 | 0.00 | 69 | 962.9 |
| 20260509051504 | 12 | 52 | 1.6 | 4.8 | 0.00 | 0.00 | 0.00 | 70 | 962.9 |
| 20260509051004 | 12 | 300 | 1.6 | 8.0 | 0.00 | 0.00 | 0.00 | 69 | 962.9 |
| 20260509050504 | 12 | 43 | 3.2 | 8.0 | 0.00 | 0.00 | 0.00 | 68 | 962.9 |
| 20260509050003 | 12 | 44 | 3.2 | 9.7 | 0.00 | 0.00 | 0.00 | 70 | 963.0 |
| 20260509045503 | 12 | 19 | 3.2 | 8.0 | 0.00 | 0.00 | 0.00 | 70 | 963.0 |
| 20260509045004 | 12 | 25 | 4.8 | 11.3 | 0.00 | 0.00 | 0.00 | 69 | 963.0 |
| 20260509044504 | 12 | 15 | 1.6 | 8.0 | 0.00 | 0.00 | 0.00 | 71 | 963.0 |
| 20260509044004 | 12 | 22 | 1.6 | 4.8 | 0.00 | 0.00 | 0.00 | 67 | 962.9 |
| 20260509043504 | 12 | 358 | 1.6 | 3.2 | 0.00 | 0.00 | 0.00 | 66 | 962.9 |
| 20260509043004 | 12 | 45 | 0.0 | 3.2 | 0.00 | 0.00 | 0.00 | 65 | 962.9 |
| 20260509042504 | 12 | 31 | 0.0 | 1.6 | 0.00 | 0.00 | 0.00 | 66 | 962.9 |
| 20260509042004 | 13 | 309 | 0.0 | 3.2 | 0.00 | 0.00 | 0.00 | 67 | 962.9 |
| 20260509041504 | 13 | 354 | 0.0 | 3.2 | 0.00 | 0.00 | 0.00 | 64 | 962.9 |
| 20260509040504 | 13 | 29 | 1.6 | 3.2 | 0.00 | 0.00 | 0.00 | 61 | 962.9 |
| 20260509040004 | 13 | 50 | 1.6 | 3.2 | 0.00 | 0.00 | 0.00 | 62 | 963.0 |
| 20260509035504 | 13 | 79 | 0.0 | 1.6 | 0.00 | 0.00 | 0.00 | 62 | 963.0 |
| 20260509035003 | 13 | 45 | 0.0 | 1.6 | 0.00 | 0.00 | 0.00 | 60 | 963.0 |
| 20260509034504 | 13 | 304 | 0.0 | 1.6 | 0.00 | 0.00 | 0.00 | 60 | 963.1 |
| 20260509034004 | 13 | 313 | 0.0 | 1.6 | 0.00 | 0.00 | 0.00 | 63 | 963.1 |
| 20260509033504 | 13 | 37 | 1.6 | 3.2 | 0.00 | 0.00 | 0.00 | 62 | 963.1 |
| 20260509033004 | 13 | 271 | 1.6 | 4.8 | 0.00 | 0.00 | 0.00 | 63 | 963.2 |
| 20260509032504 | 13 | 318 | 0.0 | 3.2 | 0.00 | 0.00 | 0.00 | 63 | 963.1 |
| 20260509032004 | 13 | 298 | 1.6 | 3.2 | 0.00 | 0.00 | 0.00 | 61 | 963.2 |
| 20260509031503 | 13 | 57 | 1.6 | 3.2 | 0.00 | 0.00 | 0.00 | 64 | 963.2 |
| 20260509031004 | 13 | 245 | 1.6 | 4.8 | 0.00 | 0.00 | 0.00 | 64 | 963.3 |
| 20260509030504 | 13 | 247 | 1.6 | 3.2 | 0.00 | 0.00 | 0.00 | 61 | 963.2 |
| 20260509030004 | 13 | 32 | 1.6 | 4.8 | 0.00 | 0.00 | 0.00 | 60 | 963.3 |
| 20260509025503 | 13 | 297 | 1.6 | 4.8 | 0.00 | 0.00 | 0.00 | 65 | 963.3 |
| 20260509025003 | 14 | 247 | 3.2 | 4.8 | 0.00 | 0.00 | 0.00 | 61 | 963.2 |
| 20260509024004 | 14 | 358 | 1.6 | 1.6 | 0.00 | 0.00 | 0.00 | 58 | 963.2 |
| 20260509023504 | 14 | 261 | 1.6 | 4.8 | 0.00 | 0.00 | 0.00 | 56 | 963.2 |
| 20260509023004 | 14 | 47 | 1.6 | 3.2 | 0.00 | 0.00 | 0.00 | 57 | 963.3 |
| 20260509022504 | 14 | 43 | 0.0 | 3.2 | 0.00 | 0.00 | 0.00 | 57 | 963.3 |
| 20260509022004 | 14 | 261 | 1.6 | 8.0 | 0.00 | 0.00 | 0.00 | 57 | 963.3 |
| 20260509021504 | 14 | 288 | 0.0 | 4.8 | 0.00 | 0.00 | 0.00 | 57 | 963.3 |
| 20260509021003 | 14 | 70 | 3.2 | 11.3 | 0.00 | 0.00 | 0.00 | 56 | 963.2 |
| 20260509020504 | 14 | 355 | 0.0 | 8.0 | 0.00 | 0.00 | 0.00 | 57 | 963.2 |
| 20260509020004 | 14 | 41 | 0.0 | 4.8 | 0.00 | 0.00 | 0.00 | 56 | 963.1 |
| 20260509015504 | 15 | 29 | 1.6 | 4.8 | 0.00 | 0.00 | 0.00 | 55 | 963.1 |
| 20260509015004 | 15 | 42 | 1.6 | 4.8 | 0.00 | 0.00 | 0.00 | 56 | 963.1 |
| 20260509014504 | 15 | 42 | 3.2 | 8.0 | 0.00 | 0.00 | 0.00 | 52 | 963.0 |
| 20260509014003 | 15 | 61 | 1.6 | 4.8 | 0.00 | 0.00 | 0.00 | 52 | 963.1 |
| 20260509013504 | 15 | 17 | 1.6 | 9.7 | 0.00 | 0.00 | 0.00 | 53 | 963.1 |
| 20260509013004 | 15 | 346 | 0.0 | 3.2 | 0.00 | 0.00 | 0.00 | 53 | 963.1 |
| 20260509012504 | 15 | 57 | 0.0 | 4.8 | 0.00 | 0.00 | 0.00 | 53 | 963.1 |
| 20260509011504 | 15 | 33 | 3.2 | 8.0 | 0.00 | 0.00 | 0.00 | 51 | 963.1 |
| 20260509011004 | 15 | 315 | 1.6 | 4.8 | 0.00 | 0.00 | 0.00 | 50 | 963.0 |
| 20260509010504 | 15 | 15 | 1.6 | 4.8 | 0.00 | 0.00 | 0.00 | 50 | 962.9 |
| 20260509010003 | 15 | 332 | 1.6 | 4.8 | 0.00 | 0.00 | 0.00 | 50 | 962.9 |
| 20260509005504 | 15 | 48 | 1.6 | 4.8 | 0.00 | 0.00 | 0.00 | 50 | 962.9 |
| 20260509005004 | 15 | 47 | 3.2 | 9.7 | 0.00 | 0.00 | 0.00 | 53 | 962.9 |
| 20260509004503 | 16 | 347 | 0.0 | 4.8 | 0.00 | 0.00 | 0.00 | 49 | 963.0 |
| 20260509004004 | 16 | 339 | 1.6 | 9.7 | 0.00 | 0.00 | 0.00 | 50 | 962.9 |
| 20260509003003 | 16 | 338 | 0.0 | 1.6 | 0.00 | 0.00 | 0.00 | 48 | 963.0 |
| 20260509002004 | 16 | 312 | 1.6 | 4.8 | 0.00 | 0.00 | 0.00 | 46 | 963.0 |
| 20260509001003 | 17 | 251 | 1.6 | 3.2 | 0.00 | 0.00 | 0.00 | 46 | 962.9 |
| 20260509000504 | 17 | 26 | 0.0 | 3.2 | 0.00 | 0.00 | 0.00 | 45 | 962.9 |
| 20260509000004 | 17 | 325 | 1.6 | 8.0 | 0.00 | 0.00 | 0.00 | 44 | 962.9 |
| 20260508235504 | 17 | 239 | 1.6 | 4.8 | 0.00 | 0.00 | 0.00 | 44 | 962.8 |
| 20260508235004 | 17 | 301 | 0.0 | 1.6 | 0.00 | 0.00 | 0.00 | 44 | 962.7 |
| 20260508234504 | 17 | 17 | 1.6 | 4.8 | 0.00 | 0.00 | 0.00 | 44 | 962.7 |
| 20260508234004 | 17 | 268 | 3.2 | 4.8 | 0.00 | 0.00 | 0.00 | 43 | 962.7 |
| 20260508233504 | 17 | 21 | 1.6 | 3.2 | 0.00 | 0.00 | 0.00 | 44 | 962.7 |
| 20260508232504 | 17 | 255 | 1.6 | 4.8 | 0.00 | 0.00 | 0.00 | 44 | 962.8 |
| 20260508232004 | 17 | 266 | 0.0 | 3.2 | 0.00 | 0.00 | 0.00 | 44 | 962.8 |
| 20260508231504 | 17 | 285 | 1.6 | 8.0 | 0.00 | 0.00 | 0.00 | 44 | 962.8 |
| 20260508231004 | 18 | 266 | 3.2 | 8.0 | 0.00 | 0.00 | 0.00 | 43 | 962.7 |
| 20260508225504 | 20 | 284 | 3.2 | 8.0 | 0.00 | 0.00 | 0.00 | 41 | 962.5 |
| 20260508225003 | 20 | 299 | 0.0 | 8.0 | 0.00 | 0.00 | 0.00 | 43 | 962.6 |
| 20260508224504 | 19 | 293 | 1.6 | 8.0 | 0.00 | 0.00 | 0.00 | 42 | 962.6 |
| 20260508223503 | 18 | 278 | 3.2 | 11.3 | 0.00 | 0.00 | 0.00 | 43 | 962.6 |
| 20260508223004 | 18 | 5 | 3.2 | 8.0 | 0.00 | 0.00 | 0.00 | 42 | 962.8 |
| 20260508222504 | 18 | 294 | 3.2 | 8.0 | 0.00 | 0.00 | 0.00 | 44 | 962.8 |
| 20260508222004 | 18 | 323 | 3.2 | 8.0 | 0.00 | 0.00 | 0.00 | 43 | 962.9 |
| 20260508221504 | 18 | 305 | 4.8 | 11.3 | 0.00 | 0.00 | 0.00 | 43 | 962.8 |
| 20260508221004 | 17 | 291 | 3.2 | 9.7 | 0.00 | 0.00 | 0.00 | 44 | 962.8 |
| 20260508220504 | 17 | 298 | 3.2 | 4.8 | 0.00 | 0.00 | 0.00 | 47 | 962.9 |
| 20260508215504 | 17 | 299 | 1.6 | 8.0 | 0.00 | 0.00 | 0.00 | 47 | 962.9 |
| 20260508215003 | 18 | 283 | 3.2 | 9.7 | 0.00 | 0.00 | 0.00 | 43 | 963.0 |
| 20260508214004 | 17 | 280 | 4.8 | 9.7 | 0.00 | 0.00 | 0.00 | 45 | 962.9 |
| 20260508213503 | 17 | 297 | 3.2 | 4.8 | 0.00 | 0.00 | 0.00 | 49 | 963.0 |
| 20260508212504 | 16 | 294 | 3.2 | 8.0 | 0.00 | 0.00 | 0.00 | 48 | 963.3 |
| 20260508212004 | 16 | 311 | 3.2 | 8.0 | 0.00 | 0.00 | 0.00 | 48 | 963.4 |
| 20260508211004 | 16 | 295 | 3.2 | 8.0 | 0.00 | 0.00 | 0.00 | 47 | 963.3 |
| 20260508210504 | 16 | 278 | 3.2 | 12.9 | 0.00 | 0.00 | 0.00 | 46 | 963.2 |
| 20260508210004 | 16 | 298 | 3.2 | 8.0 | 0.00 | 0.00 | 0.00 | 48 | 963.3 |
| 20260508205504 | 16 | 289 | 4.8 | 11.3 | 0.00 | 0.00 | 0.00 | 46 | 963.2 |
| 20260508204503 | 16 | 287 | 6.4 | 14.5 | 0.00 | 0.00 | 0.00 | 46 | 963.4 |
| 20260508204004 | 16 | 276 | 3.2 | 9.7 | 0.00 | 0.00 | 0.00 | 48 | 963.5 |
| 20260508203004 | 16 | 268 | 4.8 | 11.3 | 0.00 | 0.00 | 0.00 | 48 | 963.4 |
| 20260508202504 | 16 | 304 | 3.2 | 11.3 | 0.00 | 0.00 | 0.00 | 48 | 963.5 |
| 20260508202004 | 16 | 262 | 4.8 | 12.9 | 0.00 | 0.00 | 0.00 | 48 | 963.5 |
| 20260508201504 | 15 | 305 | 6.4 | 12.9 | 0.00 | 0.00 | 0.00 | 48 | 963.8 |
| 20260508201004 | 15 | 297 | 4.8 | 9.7 | 0.00 | 0.00 | 0.00 | 48 | 963.7 |
| 20260508200503 | 15 | 292 | 6.4 | 11.3 | 0.00 | 0.00 | 0.00 | 48 | 963.7 |
| 20260508200004 | 15 | 273 | 4.8 | 14.5 | 0.00 | 0.00 | 0.00 | 47 | 963.8 |
| 20260508195504 | 15 | 291 | 8.0 | 14.5 | 0.00 | 0.00 | 0.00 | 48 | 964.0 |
| 20260508195004 | 15 | 295 | 6.4 | 14.5 | 0.00 | 0.00 | 0.00 | 47 | 963.9 |
| 20260508194504 | 15 | 322 | 4.8 | 14.5 | 0.00 | 0.00 | 0.00 | 47 | 963.9 |
| 20260508194003 | 15 | 302 | 4.8 | 9.7 | 0.00 | 0.00 | 0.00 | 48 | 964.0 |
| 20260508193503 | 15 | 300 | 4.8 | 12.9 | 0.00 | 0.00 | 0.00 | 46 | 964.1 |
| 20260508192504 | 15 | 299 | 6.4 | 14.5 | 0.00 | 0.00 | 0.00 | 47 | 964.1 |
| 20260508192004 | 15 | 278 | 4.8 | 11.3 | 0.00 | 0.00 | 0.00 | 47 | 964.2 |
| 20260508191504 | 16 | 272 | 3.2 | 12.9 | 0.00 | 0.00 | 0.00 | 47 | 964.2 |
| 20260508191004 | 16 | 278 | 6.4 | 11.3 | 0.00 | 0.00 | 0.00 | 45 | 964.1 |
| 20260508190504 | 16 | 277 | 3.2 | 11.3 | 0.00 | 0.00 | 0.00 | 46 | 964.2 |
| 20260508190004 | 16 | 265 | 4.8 | 11.3 | 0.00 | 0.00 | 0.00 | 46 | 964.2 |